createdAt,value
2022-08-02T00:00:12.294Z,62.48
2022-08-02T00:02:38.789Z,62.12
2022-08-02T00:05:05.834Z,61.67
2022-08-02T00:07:35.298Z,61.58
2022-08-02T00:10:06.777Z,61.09
2022-08-02T00:12:33.498Z,61.88
2022-08-02T00:15:00.212Z,61.76
2022-08-02T00:17:26.778Z,62.03
2022-08-02T00:19:53.281Z,62.33
2022-08-02T00:22:19.808Z,62.17
2022-08-02T00:24:46.480Z,62.18
2022-08-02T00:27:13.162Z,62.82
2022-08-02T00:29:42.699Z,62.85
2022-08-02T00:32:19.393Z,63.51
2022-08-02T00:34:46.006Z,65.10
2022-08-02T00:37:12.544Z,64.64
2022-08-02T00:39:39.051Z,64.74
2022-08-02T00:42:05.538Z,65.14
2022-08-02T00:44:32.086Z,65.86
2022-08-02T00:46:58.581Z,66.58
2022-08-02T00:49:25.215Z,66.49
2022-08-02T00:51:51.678Z,65.34
2022-08-02T00:54:19.547Z,66.25
2022-08-02T00:56:49.586Z,66.13
2022-08-02T00:59:16.577Z,65.05
2022-08-02T01:01:55.642Z,64.44
2022-08-02T01:04:29.845Z,64.36
2022-08-02T01:06:59.473Z,64.87
2022-08-02T01:09:26.112Z,64.95
2022-08-02T01:11:52.978Z,65.13
2022-08-02T01:14:20.024Z,65.38
2022-08-02T01:16:50.813Z,64.31
2022-08-02T01:19:34.681Z,63.55
2022-08-02T01:22:16.810Z,63.58
2022-08-02T01:25:07.781Z,63.27
2022-08-02T01:27:46.654Z,63.58
2022-08-02T01:30:14.545Z,64.63
2022-08-02T01:32:44.816Z,66.60
2022-08-02T01:35:22.467Z,66.36
2022-08-02T01:37:57.266Z,67.74
2022-08-02T01:40:29.318Z,66.24
2022-08-02T01:42:58.539Z,66.10
2022-08-02T01:45:26.781Z,65.75
2022-08-02T01:47:54.573Z,67.33
2022-08-02T01:50:26.363Z,66.87
2022-08-02T01:52:56.758Z,66.62
2022-08-02T01:55:33.688Z,66.50
2022-08-02T01:58:16.708Z,65.46
2022-08-02T02:00:44.697Z,66.93
2022-08-02T02:03:14.493Z,66.06
2022-08-02T02:05:43.918Z,67.36
2022-08-02T02:08:11.823Z,66.93
2022-08-02T02:10:40.583Z,67.21
2022-08-02T02:13:13.777Z,67.92
2022-08-02T02:15:51.139Z,66.74
2022-08-02T02:18:24.113Z,67.99
2022-08-02T02:20:51.180Z,68.37
2022-08-02T02:23:17.738Z,68.27
2022-08-02T02:25:53.167Z,68.65
2022-08-02T02:28:30.007Z,68.03
2022-08-02T02:31:07.042Z,68.13
2022-08-02T02:33:37.484Z,67.73
2022-08-02T02:36:05.099Z,68.39
2022-08-02T02:38:33.577Z,69.13
2022-08-02T02:41:05.385Z,69.55
2022-08-02T02:43:34.346Z,69.41
2022-08-02T02:46:03.732Z,69.28
2022-08-02T02:48:31.908Z,69.64
2022-08-02T02:51:00.467Z,69.20
2022-08-02T02:53:28.614Z,68.82
2022-08-02T02:56:16.747Z,67.75
2022-08-02T02:58:44.059Z,67.12
2022-08-02T03:01:56.071Z,67.56
2022-08-02T03:04:18.375Z,66.84
2022-08-02T03:06:45.853Z,67.30
2022-08-02T03:09:12.530Z,67.97
2022-08-02T03:11:40.557Z,68.49
2022-08-02T03:14:10.983Z,68.66
2022-08-02T03:16:45.646Z,68.45
2022-08-02T03:19:12.405Z,67.91
2022-08-02T03:21:39.435Z,68.01
2022-08-02T03:24:07.115Z,68.34
2022-08-02T03:26:34.162Z,68.35
2022-08-02T03:29:00.901Z,68.03
2022-08-02T03:31:39.758Z,68.02
2022-08-02T03:34:06.310Z,68.47
2022-08-02T03:36:34.741Z,68.51
2022-08-02T03:39:01.777Z,67.94
2022-08-02T03:41:29.785Z,67.51
2022-08-02T03:43:57.004Z,67.43
2022-08-02T03:46:25.170Z,67.38
2022-08-02T03:48:53.087Z,67.56
2022-08-02T03:51:20.449Z,67.80
2022-08-02T03:53:48.888Z,67.48
2022-08-02T03:56:16.827Z,68.93
2022-08-02T03:58:48.832Z,68.64
2022-08-02T04:01:16.544Z,69.13
2022-08-02T04:03:43.276Z,69.20
2022-08-02T04:06:09.865Z,69.88
2022-08-02T04:08:38.645Z,70.93
2022-08-02T04:11:25.139Z,70.69
2022-08-02T04:13:52.569Z,70.58
2022-08-02T04:16:34.403Z,70.26
2022-08-02T04:19:03.293Z,70.21
2022-08-02T04:21:48.931Z,70.14
2022-08-02T04:24:25.169Z,69.40
2022-08-02T04:26:57.919Z,69.45
2022-08-02T04:29:35.193Z,69.04
2022-08-02T04:32:02.631Z,68.77
2022-08-02T04:34:30.343Z,68.26
2022-08-02T04:36:58.638Z,68.05
2022-08-02T04:39:25.222Z,68.51
2022-08-02T04:41:57.179Z,68.41
2022-08-02T04:44:24.506Z,68.07
2022-08-02T04:46:51.352Z,68.20
2022-08-02T04:49:17.962Z,68.08
2022-08-02T04:51:44.575Z,67.60
2022-08-02T04:54:11.691Z,67.40
2022-08-02T04:56:39.384Z,67.84
2022-08-02T04:59:06.787Z,67.50
2022-08-02T05:01:33.392Z,67.66
2022-08-02T05:03:59.902Z,67.77
2022-08-02T05:06:26.319Z,67.08
2022-08-02T05:08:53.771Z,66.71
2022-08-02T05:11:34.572Z,66.19
2022-08-02T05:14:04.509Z,66.16
2022-08-02T05:16:32.158Z,66.03
2022-08-02T05:19:00.277Z,65.77
2022-08-02T05:21:26.740Z,65.60
2022-08-02T05:23:53.272Z,64.93
2022-08-02T05:26:19.860Z,64.07
2022-08-02T05:28:46.323Z,63.62
2022-08-02T05:31:13.271Z,62.97
2022-08-02T05:33:40.395Z,62.40
2022-08-02T05:36:09.141Z,62.29
2022-08-02T05:38:37.313Z,61.53
2022-08-02T05:41:07.163Z,60.64
2022-08-02T05:43:34.020Z,59.64
2022-08-02T05:46:00.650Z,58.06
2022-08-02T05:48:31.473Z,56.04
2022-08-02T05:51:04.486Z,55.53
2022-08-02T05:53:41.174Z,55.05
2022-08-02T05:56:24.888Z,53.96
2022-08-02T05:59:13.580Z,53.25
2022-08-02T06:01:42.703Z,52.76
2022-08-02T06:04:12.786Z,51.35
2022-08-02T06:06:44.047Z,50.73
2022-08-02T06:09:16.874Z,50.27
2022-08-02T06:12:01.881Z,49.63
2022-08-02T06:14:33.055Z,48.79
2022-08-02T06:17:03.930Z,47.91
2022-08-02T06:19:32.089Z,48.01
2022-08-02T06:22:33.202Z,47.28
2022-08-02T06:25:04.421Z,46.58
2022-08-02T06:27:31.630Z,46.16
2022-08-02T06:29:58.263Z,45.77
2022-08-02T06:32:27.056Z,45.41
2022-08-02T06:34:53.506Z,45.36
2022-08-02T06:37:44.738Z,45.19
2022-08-02T06:40:31.342Z,45.80
2022-08-02T06:43:25.460Z,45.69
2022-08-02T06:45:51.927Z,45.41
2022-08-02T06:48:18.474Z,45.49
2022-08-02T06:50:45.031Z,45.26
2022-08-02T06:53:12.177Z,45.68
2022-08-02T06:55:43.584Z,45.90
2022-08-02T06:58:11.764Z,44.93
2022-08-02T07:00:38.589Z,43.76
2022-08-02T07:03:05.876Z,43.08
2022-08-02T07:05:32.354Z,42.48
2022-08-02T07:07:58.797Z,42.20
2022-08-02T07:10:25.306Z,43.16
2022-08-02T07:12:51.746Z,43.71
2022-08-02T07:15:18.249Z,43.39
2022-08-02T07:17:44.746Z,42.21
2022-08-02T07:20:13.448Z,41.70
2022-08-02T07:22:40.064Z,41.93
2022-08-02T07:25:08.153Z,40.60
2022-08-02T07:27:34.921Z,40.38
2022-08-02T07:30:02.375Z,40.32
2022-08-02T07:32:31.265Z,38.92
2022-08-02T07:34:58.953Z,38.51
2022-08-02T07:37:53.607Z,37.94
2022-08-02T07:40:19.848Z,37.67
2022-08-02T07:42:54.555Z,38.19
2022-08-02T07:45:24.518Z,36.07
2022-08-02T07:47:51.640Z,35.38
2022-08-02T07:50:20.082Z,35.26
2022-08-02T07:52:47.790Z,35.32
2022-08-02T07:55:17.953Z,34.40
2022-08-02T07:57:46.758Z,33.54
2022-08-02T08:00:15.961Z,35.30
2022-08-02T08:02:42.393Z,31.62
2022-08-02T08:05:09.479Z,31.28
2022-08-02T08:07:36.060Z,31.19
2022-08-02T08:10:03.961Z,31.75
2022-08-02T08:12:30.386Z,30.02
2022-08-02T08:14:56.795Z,29.49
2022-08-02T08:17:23.390Z,28.87
2022-08-02T08:19:52.062Z,30.03
2022-08-02T08:22:20.370Z,29.45
2022-08-02T08:24:49.042Z,28.61
2022-08-02T08:27:16.764Z,27.95
2022-08-02T08:29:44.325Z,28.58
2022-08-02T08:32:16.342Z,28.23
2022-08-02T08:34:47.670Z,29.07
2022-08-02T08:37:16.729Z,28.27
2022-08-02T08:39:57.578Z,29.42
2022-08-02T08:42:30.579Z,29.64
2022-08-02T08:44:57.824Z,29.44
2022-08-02T08:47:34.356Z,29.51
2022-08-02T08:50:04.563Z,29.37
2022-08-02T08:52:36.588Z,29.33
2022-08-02T08:55:05.650Z,29.52
2022-08-02T08:57:35.090Z,29.44
2022-08-02T09:00:01.742Z,29.27
2022-08-02T09:02:28.743Z,29.93
2022-08-02T09:04:55.651Z,30.08
2022-08-02T09:07:23.558Z,30.57
2022-08-02T09:09:50.004Z,29.53
2022-08-02T09:12:22.234Z,29.54
2022-08-02T09:14:50.169Z,29.31
2022-08-02T09:17:17.872Z,28.81
2022-08-02T09:19:45.839Z,29.13
2022-08-02T09:22:14.980Z,28.58
2022-08-02T09:24:45.195Z,28.47
2022-08-02T09:27:14.046Z,27.93
2022-08-02T09:30:06.011Z,27.62
2022-08-02T09:32:44.011Z,28.04
2022-08-02T09:35:10.895Z,28.60
2022-08-02T09:37:37.408Z,29.58
2022-08-02T09:40:06.771Z,30.26
2022-08-02T09:42:34.190Z,30.68
2022-08-02T09:45:02.093Z,31.45
2022-08-02T09:47:30.994Z,31.50
2022-08-02T09:49:58.626Z,31.75
2022-08-02T09:52:37.016Z,31.87
2022-08-02T09:55:11.283Z,32.41
2022-08-02T09:57:41.046Z,31.47
2022-08-02T10:00:14.911Z,31.28
2022-08-02T10:03:06.902Z,31.73
2022-08-02T10:05:55.534Z,31.67
2022-08-02T10:08:23.049Z,31.66
2022-08-02T10:11:00.316Z,31.78
2022-08-02T10:13:32.475Z,31.81
2022-08-02T10:15:59.487Z,32.64
2022-08-02T10:18:38.662Z,32.70
2022-08-02T10:21:12.180Z,32.32
2022-08-02T10:23:40.526Z,33.10
2022-08-02T10:26:07.945Z,33.17
2022-08-02T10:28:34.742Z,32.97
2022-08-02T10:31:05.522Z,31.49
2022-08-02T10:33:35.886Z,31.53
2022-08-02T10:36:07.549Z,31.62
2022-08-02T10:38:36.002Z,31.06
2022-08-02T10:41:02.756Z,30.42
2022-08-02T10:43:32.206Z,29.93
2022-08-02T10:46:25.214Z,29.26
2022-08-02T10:49:39.144Z,29.92
2022-08-02T10:52:07.275Z,29.94
2022-08-02T10:54:35.557Z,29.64
2022-08-02T10:57:04.247Z,29.02
2022-08-02T10:59:36.705Z,28.82
2022-08-02T11:02:05.699Z,28.01
2022-08-02T11:04:41.494Z,26.73
2022-08-02T11:07:17.340Z,28.03
2022-08-02T11:09:49.253Z,27.79
2022-08-02T11:12:19.872Z,28.08
2022-08-02T11:15:07.336Z,27.55
2022-08-02T11:17:54.246Z,26.61
2022-08-02T11:20:23.567Z,27.87
2022-08-02T11:22:52.501Z,28.03
2022-08-02T11:25:21.759Z,28.61
2022-08-02T11:27:48.904Z,28.26
2022-08-02T11:30:16.294Z,27.46
2022-08-02T11:32:42.859Z,27.18
2022-08-02T11:35:10.083Z,27.02
2022-08-02T11:37:39.736Z,27.99
2022-08-02T11:40:18.999Z,28.07
2022-08-02T11:42:50.370Z,27.83
2022-08-02T11:45:20.908Z,27.75
2022-08-02T11:47:54.166Z,27.08
2022-08-02T11:50:29.795Z,27.38
2022-08-02T11:52:57.462Z,28.01
2022-08-02T11:55:31.535Z,27.86
2022-08-02T11:58:05.404Z,28.03
2022-08-02T12:00:32.530Z,26.93
2022-08-02T12:02:59.090Z,26.95
2022-08-02T12:05:51.226Z,26.68
2022-08-02T12:08:13.260Z,26.54
2022-08-02T12:10:48.249Z,25.90
2022-08-02T12:13:14.923Z,26.08
2022-08-02T12:15:47.097Z,26.54
2022-08-02T12:18:38.510Z,26.90
2022-08-02T12:21:22.418Z,26.78
2022-08-02T12:24:00.536Z,27.45
2022-08-02T12:26:28.851Z,28.46
2022-08-02T12:29:01.389Z,28.87
2022-08-02T12:31:57.306Z,28.29
2022-08-02T12:34:30.038Z,27.40
2022-08-02T12:37:06.330Z,27.92
2022-08-02T12:39:49.919Z,28.57
2022-08-02T12:42:17.049Z,29.06
2022-08-02T12:45:00.055Z,30.81
2022-08-02T12:47:31.183Z,31.17
2022-08-02T12:50:13.079Z,30.89
2022-08-02T12:52:39.734Z,31.22
2022-08-02T12:55:25.755Z,30.09
2022-08-02T12:58:12.409Z,30.44
2022-08-02T13:00:39.783Z,30.26
2022-08-02T13:03:11.611Z,30.45
2022-08-02T13:05:56.567Z,30.80
2022-08-02T13:08:24.515Z,30.92
2022-08-02T13:10:51.170Z,30.71
2022-08-02T13:13:17.649Z,30.88
2022-08-02T13:15:48.833Z,30.42
2022-08-02T13:18:18.394Z,30.49
2022-08-02T13:20:45.614Z,31.00
2022-08-02T13:23:21.286Z,30.27
2022-08-02T13:25:52.550Z,29.98
2022-08-02T13:28:20.318Z,30.32
2022-08-02T13:30:47.566Z,29.82
2022-08-02T13:33:15.116Z,30.27
2022-08-02T13:35:42.458Z,30.13
2022-08-02T13:38:08.987Z,29.75
2022-08-02T13:41:03.838Z,30.26
2022-08-02T13:43:52.838Z,30.21
2022-08-02T13:46:17.230Z,29.91
2022-08-02T13:48:56.180Z,30.98
2022-08-02T13:51:23.020Z,30.18
2022-08-02T13:53:49.419Z,29.75
2022-08-02T13:56:16.012Z,29.73
2022-08-02T13:58:42.671Z,29.60
2022-08-02T14:01:10.132Z,29.13
2022-08-02T14:04:07.713Z,28.61
2022-08-02T14:06:23.178Z,28.98
2022-08-02T14:08:49.995Z,28.51
2022-08-02T14:11:16.438Z,28.68
2022-08-02T14:13:43.308Z,28.15
2022-08-02T14:16:10.185Z,28.47
2022-08-02T14:18:37.418Z,26.94
2022-08-02T14:21:04.021Z,27.48
2022-08-02T14:23:49.691Z,27.13
2022-08-02T14:26:26.893Z,26.52
2022-08-02T14:28:54.494Z,26.66
2022-08-02T14:31:20.925Z,26.34
2022-08-02T14:33:48.981Z,26.64
2022-08-02T14:36:15.454Z,26.99
2022-08-02T14:38:55.102Z,26.37
2022-08-02T14:41:21.711Z,26.54
2022-08-02T14:44:07.893Z,25.97
2022-08-02T14:46:43.201Z,25.63
2022-08-02T14:49:10.709Z,26.26
2022-08-02T14:51:38.053Z,26.16
2022-08-02T14:54:06.155Z,26.23
2022-08-02T14:56:35.378Z,25.81
2022-08-02T14:59:01.814Z,26.19
2022-08-02T15:01:28.406Z,26.07
2022-08-02T15:03:54.874Z,26.33
2022-08-02T15:06:21.419Z,26.26
2022-08-02T15:08:47.846Z,26.28
2022-08-02T15:11:14.415Z,26.13
2022-08-02T15:13:42.350Z,26.17
2022-08-02T15:16:09.546Z,25.63
2022-08-02T15:18:39.181Z,25.90
2022-08-02T15:21:40.215Z,25.61
2022-08-02T15:23:52.098Z,25.49
2022-08-02T15:26:20.892Z,25.56
2022-08-02T15:28:48.447Z,26.14
2022-08-02T15:31:32.943Z,26.51
2022-08-02T15:34:00.875Z,26.67
2022-08-02T15:36:29.555Z,26.46
2022-08-02T15:38:57.430Z,27.17
2022-08-02T15:41:24.067Z,26.88
2022-08-02T15:44:00.337Z,26.75
2022-08-02T15:46:30.727Z,26.81
2022-08-02T15:48:58.574Z,27.05
2022-08-02T15:51:27.339Z,27.41
2022-08-02T15:53:53.814Z,27.40
2022-08-02T15:56:21.903Z,27.54
2022-08-02T15:58:51.757Z,27.02
2022-08-02T16:01:23.266Z,26.54
2022-08-02T16:03:49.998Z,26.82
2022-08-02T16:06:16.568Z,26.71
2022-08-02T16:08:54.812Z,26.84
2022-08-02T16:11:22.421Z,26.73
2022-08-02T16:13:54.307Z,27.22
2022-08-02T16:16:27.438Z,26.89
2022-08-02T16:18:54.557Z,27.40
2022-08-02T16:21:22.808Z,27.63
2022-08-02T16:23:58.997Z,27.51
2022-08-02T16:26:30.305Z,27.30
2022-08-02T16:28:57.175Z,27.07
2022-08-02T16:31:23.917Z,26.49
2022-08-02T16:33:50.528Z,26.81
2022-08-02T16:36:24.099Z,26.78
2022-08-02T16:38:50.700Z,26.75
2022-08-02T16:41:17.147Z,27.43
2022-08-02T16:43:44.641Z,27.83
2022-08-02T16:46:11.261Z,27.91
2022-08-02T16:48:37.794Z,27.94
2022-08-02T16:51:04.805Z,28.63
2022-08-02T16:53:59.812Z,28.59
2022-08-02T16:56:28.455Z,29.36
2022-08-02T16:58:55.513Z,29.46
2022-08-02T17:01:27.740Z,28.81
2022-08-02T17:04:12.958Z,30.38
2022-08-02T17:06:39.838Z,30.44
2022-08-02T17:10:01.902Z,29.44
2022-08-02T17:12:01.049Z,29.96
2022-08-02T17:14:28.112Z,30.51
2022-08-02T17:16:55.385Z,29.84
2022-08-02T17:19:21.899Z,29.41
2022-08-02T17:21:48.524Z,29.98
2022-08-02T17:24:14.986Z,30.17
2022-08-02T17:26:41.435Z,30.93
2022-08-02T17:29:15.053Z,30.49
2022-08-02T17:32:05.688Z,30.99
2022-08-02T17:34:37.055Z,31.41
2022-08-02T17:37:05.560Z,31.44
2022-08-02T17:39:34.270Z,31.55
2022-08-02T17:42:10.295Z,31.73
2022-08-02T17:44:42.382Z,31.24
2022-08-02T17:47:15.611Z,31.98
2022-08-02T17:49:48.629Z,31.93
2022-08-02T17:52:51.777Z,32.08
2022-08-02T17:55:03.798Z,31.85
2022-08-02T17:57:55.738Z,31.92
2022-08-02T18:00:18.124Z,31.69
2022-08-02T18:02:50.563Z,31.96
2022-08-02T18:05:21.485Z,31.92
2022-08-02T18:07:50.937Z,31.45
2022-08-02T18:10:20.754Z,31.59
2022-08-02T18:12:49.840Z,32.98
2022-08-02T18:15:16.401Z,32.34
2022-08-02T18:17:46.559Z,32.35
2022-08-02T18:20:13.044Z,32.36
2022-08-02T18:22:43.056Z,32.47
2022-08-02T18:25:11.325Z,32.69
2022-08-02T18:27:45.004Z,33.42
2022-08-02T18:30:12.521Z,33.48
2022-08-02T18:33:57.374Z,34.30
2022-08-02T18:35:25.648Z,35.06
2022-08-02T18:37:57.277Z,35.25
2022-08-02T18:40:30.081Z,35.00
2022-08-02T18:42:57.547Z,35.77
2022-08-02T18:45:24.854Z,36.05
2022-08-02T18:48:11.351Z,35.66
2022-08-02T18:50:43.811Z,36.23
2022-08-02T18:53:13.453Z,35.94
2022-08-02T18:55:59.166Z,35.91
2022-08-02T18:58:26.553Z,36.81
2022-08-02T19:00:55.749Z,36.95
2022-08-02T19:03:22.502Z,36.72
2022-08-02T19:05:53.109Z,36.73
2022-08-02T19:08:20.539Z,36.57
2022-08-02T19:10:52.972Z,35.95
2022-08-02T19:13:19.644Z,36.03
2022-08-02T19:15:46.669Z,36.07
2022-08-02T19:18:14.567Z,36.57
2022-08-02T19:20:41.139Z,36.91
2022-08-02T19:23:15.501Z,37.25
2022-08-02T19:25:50.078Z,36.95
2022-08-02T19:28:17.314Z,37.50
2022-08-02T19:30:52.958Z,37.89
2022-08-02T19:33:24.938Z,37.89
2022-08-02T19:36:07.137Z,38.42
2022-08-02T19:38:33.606Z,39.06
2022-08-02T19:41:01.549Z,39.22
2022-08-02T19:44:25.376Z,39.82
2022-08-02T19:46:15.995Z,39.97
2022-08-02T19:48:44.149Z,40.08
2022-08-02T19:51:12.892Z,40.04
2022-08-02T19:53:46.594Z,40.11
2022-08-02T19:56:20.958Z,40.38
2022-08-02T19:58:49.273Z,40.49
2022-08-02T20:01:17.257Z,40.68
2022-08-02T20:03:51.332Z,40.64
2022-08-02T20:06:29.500Z,40.71
2022-08-02T20:08:59.221Z,40.71
2022-08-02T20:11:27.739Z,41.29
2022-08-02T20:13:54.271Z,41.12
2022-08-02T20:16:28.090Z,41.09
2022-08-02T20:18:56.061Z,41.38
2022-08-02T20:21:34.460Z,41.50
2022-08-02T20:24:06.231Z,41.93
2022-08-02T20:26:32.743Z,41.81
2022-08-02T20:29:03.497Z,41.76
2022-08-02T20:31:30.386Z,41.97
2022-08-02T20:33:57.086Z,41.87
2022-08-02T20:36:27.911Z,42.04
2022-08-02T20:38:55.192Z,42.43
2022-08-02T20:41:22.999Z,42.83
2022-08-02T20:43:50.395Z,43.16
2022-08-02T20:46:17.003Z,43.68
2022-08-02T20:48:44.228Z,43.21
2022-08-02T20:51:12.556Z,43.49
2022-08-02T20:53:54.617Z,43.52
2022-08-02T20:56:21.845Z,43.72
2022-08-02T20:58:48.380Z,44.04
2022-08-02T21:01:21.220Z,44.14
2022-08-02T21:03:58.382Z,44.29
2022-08-02T21:06:28.201Z,44.54
2022-08-02T21:08:55.518Z,44.67
2022-08-02T21:11:25.505Z,45.30
2022-08-02T21:14:06.908Z,44.90
2022-08-02T21:16:36.465Z,45.05
2022-08-02T21:19:08.109Z,45.04
2022-08-02T21:21:37.193Z,45.40
2022-08-02T21:24:04.103Z,45.35
2022-08-02T21:26:32.479Z,45.54
2022-08-02T21:29:03.970Z,45.83
2022-08-02T21:31:35.841Z,47.05
2022-08-02T21:34:21.629Z,47.76
2022-08-02T21:36:49.603Z,47.23
2022-08-02T21:39:17.211Z,46.69
2022-08-02T21:41:47.112Z,47.39
2022-08-02T21:44:18.410Z,47.51
2022-08-02T21:46:50.380Z,47.66
2022-08-02T21:49:27.175Z,47.56
2022-08-02T21:52:08.442Z,48.55
2022-08-02T21:54:35.096Z,48.52
2022-08-02T21:57:01.597Z,48.33
2022-08-02T21:59:30.573Z,48.37
2022-08-02T22:01:59.545Z,48.19
2022-08-02T22:04:26.653Z,48.21
2022-08-02T22:06:55.178Z,48.86
2022-08-02T22:09:43.506Z,48.45
2022-08-02T22:12:16.965Z,48.65
2022-08-02T22:14:49.647Z,49.17
2022-08-02T22:17:21.703Z,49.41
2022-08-02T22:20:08.883Z,49.83
2022-08-02T22:22:38.871Z,49.19
2022-08-02T22:25:05.891Z,49.72
2022-08-02T22:28:36.096Z,49.66
2022-08-02T22:30:24.758Z,49.46
2022-08-02T22:33:15.235Z,49.74
2022-08-02T22:35:42.209Z,49.55
2022-08-02T22:38:16.884Z,49.80
2022-08-02T22:40:55.198Z,49.82
2022-08-02T22:43:22.944Z,50.15
2022-08-02T22:45:49.978Z,50.16
2022-08-02T22:48:16.791Z,51.12
2022-08-02T22:50:43.287Z,50.65
2022-08-02T22:53:09.836Z,50.67
2022-08-02T22:55:41.597Z,50.79
2022-08-02T22:58:08.973Z,50.94
2022-08-02T23:00:35.388Z,50.85
2022-08-02T23:03:01.901Z,51.18
2022-08-02T23:05:29.884Z,51.43
2022-08-02T23:07:56.745Z,52.22
2022-08-02T23:10:23.714Z,52.27
2022-08-02T23:12:50.257Z,52.61
2022-08-02T23:15:17.022Z,52.36
2022-08-02T23:18:02.177Z,52.15
2022-08-02T23:20:28.855Z,52.21
2022-08-02T23:22:55.757Z,52.53
2022-08-02T23:25:22.496Z,52.15
2022-08-02T23:27:51.425Z,52.01
2022-08-02T23:30:18.794Z,52.06
2022-08-02T23:32:46.769Z,52.11
2022-08-02T23:35:16.934Z,52.76
2022-08-02T23:37:59.218Z,53.28
2022-08-02T23:40:39.550Z,53.05
2022-08-02T23:43:14.374Z,52.79
2022-08-02T23:45:45.843Z,53.50
2022-08-02T23:48:12.546Z,53.09
2022-08-02T23:50:39.441Z,53.66
2022-08-02T23:53:05.960Z,53.63
2022-08-02T23:55:32.422Z,53.31
2022-08-02T23:57:58.812Z,53.33
